createdAt,value
2018-11-26T00:01:59.583Z,100767.70
2018-11-26T00:04:27.181Z,100770.60
2018-11-26T00:06:54.799Z,100770.11
2018-11-26T00:09:22.401Z,100773.50
2018-11-26T00:11:50.027Z,100773.00
2018-11-26T00:14:17.685Z,100770.34
2018-11-26T00:16:45.368Z,100764.71
2018-11-26T00:19:12.982Z,100766.79
2018-11-26T00:21:40.597Z,100766.64
2018-11-26T00:24:08.806Z,100769.53
2018-11-26T00:26:36.417Z,100762.15
2018-11-26T00:29:04.057Z,100761.19
2018-11-26T00:31:31.650Z,100764.45
2018-11-26T00:33:59.253Z,100769.82
2018-11-26T00:36:26.853Z,100769.73
2018-11-26T00:38:54.455Z,100767.83
2018-11-26T00:41:22.089Z,100772.87
2018-11-26T00:43:49.691Z,100767.62
2018-11-26T00:46:17.309Z,100755.00
2018-11-26T00:48:44.895Z,100754.84
2018-11-26T00:51:12.521Z,100766.81
2018-11-26T00:53:40.133Z,100763.59
2018-11-26T00:56:07.781Z,100757.55
2018-11-26T00:58:35.403Z,100757.05
2018-11-26T01:01:03.076Z,100751.84
2018-11-26T01:03:30.692Z,100753.83
2018-11-26T01:05:58.323Z,100750.88
2018-11-26T01:08:25.943Z,100747.00
2018-11-26T01:10:53.896Z,100750.56
2018-11-26T01:13:21.510Z,100754.92
2018-11-26T01:15:49.146Z,100748.25
2018-11-26T01:18:16.782Z,100729.98
2018-11-26T01:20:44.459Z,100735.86
2018-11-26T01:23:12.079Z,100733.36
2018-11-26T01:25:39.733Z,100730.41
2018-11-26T01:28:07.397Z,100729.19
2018-11-26T01:30:35.702Z,100725.28
2018-11-26T01:33:03.368Z,100713.63
2018-11-26T01:35:30.985Z,100721.83
2018-11-26T01:37:58.641Z,100716.61
2018-11-26T01:40:32.074Z,100713.08
2018-11-26T01:42:59.701Z,100718.13
2018-11-26T01:45:27.349Z,100712.08
2018-11-26T01:47:54.960Z,100714.59
2018-11-26T01:50:22.574Z,100717.56
2018-11-26T01:52:50.229Z,100721.23
2018-11-26T01:55:17.848Z,100726.97
2018-11-26T01:57:45.522Z,100719.27
2018-11-26T02:00:17.474Z,100721.86
2018-11-26T02:02:45.149Z,100712.04
2018-11-26T02:05:12.818Z,100714.63
2018-11-26T02:07:40.417Z,100708.19
2018-11-26T02:10:09.694Z,100712.79
2018-11-26T02:12:37.353Z,100707.94
2018-11-26T02:15:06.584Z,100710.45
2018-11-26T02:17:34.190Z,100706.09
2018-11-26T02:20:01.809Z,100702.72
2018-11-26T02:22:29.426Z,100702.22
2018-11-26T02:24:57.092Z,100702.16
2018-11-26T02:27:24.730Z,100697.49
2018-11-26T02:29:52.352Z,100690.55
2018-11-26T02:32:19.961Z,100692.70
2018-11-26T02:34:47.732Z,100686.82
2018-11-26T02:37:15.313Z,100685.95
2018-11-26T02:39:42.903Z,100682.91
2018-11-26T02:42:10.537Z,100686.29
2018-11-26T02:44:38.129Z,100687.73
2018-11-26T02:47:06.116Z,100674.92
2018-11-26T02:49:33.797Z,100680.94
2018-11-26T02:52:01.426Z,100677.96
2018-11-26T02:54:29.042Z,100680.19
2018-11-26T02:56:56.680Z,100678.52
2018-11-26T02:59:24.291Z,100683.34
2018-11-26T03:01:51.917Z,100685.09
2018-11-26T03:04:19.519Z,100684.71
2018-11-26T03:06:47.152Z,100683.92
2018-11-26T03:09:14.801Z,100681.27
2018-11-26T03:11:42.439Z,100690.20
2018-11-26T03:14:10.067Z,100684.02
2018-11-26T03:16:37.712Z,100682.03
2018-11-26T03:19:05.426Z,100684.59
2018-11-26T03:21:33.038Z,100680.10
2018-11-26T03:24:00.677Z,100686.02
2018-11-26T03:26:28.301Z,100685.84
2018-11-26T03:28:55.916Z,100683.05
2018-11-26T03:31:23.544Z,100684.13
2018-11-26T03:33:51.469Z,100673.61
2018-11-26T03:36:19.091Z,100672.95
2018-11-26T03:38:51.804Z,100668.34
2018-11-26T03:41:19.762Z,100669.85
2018-11-26T03:43:47.460Z,100667.97
2018-11-26T03:46:15.117Z,100659.80
2018-11-26T03:48:42.810Z,100663.51
2018-11-26T03:51:10.462Z,100664.93
2018-11-26T03:53:38.136Z,100665.32
2018-11-26T03:56:06.381Z,100659.80
2018-11-26T03:58:34.013Z,100661.02
2018-11-26T04:01:01.862Z,100655.46
2018-11-26T04:03:29.498Z,100658.40
2018-11-26T04:05:57.216Z,100656.28
2018-11-26T04:08:24.840Z,100654.71
2018-11-26T04:10:52.741Z,100649.38
2018-11-26T04:13:20.406Z,100655.95
2018-11-26T04:15:48.040Z,100649.96
2018-11-26T04:18:15.684Z,100656.81
2018-11-26T04:20:43.353Z,100657.17
2018-11-26T04:23:10.971Z,100656.34
2018-11-26T04:25:38.678Z,100652.48
2018-11-26T04:28:06.816Z,100655.47
2018-11-26T04:30:34.474Z,100653.66
2018-11-26T04:33:02.154Z,100647.28
2018-11-26T04:35:29.801Z,100652.48
2018-11-26T04:37:57.414Z,100642.60
2018-11-26T04:40:25.054Z,100643.02
2018-11-26T04:42:52.728Z,100645.70
2018-11-26T04:45:20.395Z,100643.18
2018-11-26T04:47:48.007Z,100648.73
2018-11-26T04:50:15.628Z,100644.88
2018-11-26T04:52:43.246Z,100649.16
2018-11-26T04:55:11.971Z,100653.61
2018-11-26T04:57:42.588Z,100657.16
2018-11-26T05:00:10.253Z,100658.45
2018-11-26T05:02:37.929Z,100654.66
2018-11-26T05:05:06.656Z,100657.34
2018-11-26T05:07:34.285Z,100666.05
2018-11-26T05:10:02.154Z,100661.52
2018-11-26T05:12:29.771Z,100661.13
2018-11-26T05:14:57.960Z,100656.42
2018-11-26T05:17:25.577Z,100654.37
2018-11-26T05:19:53.215Z,100653.04
2018-11-26T05:22:20.846Z,100652.56
2018-11-26T05:24:48.477Z,100655.15
2018-11-26T05:27:16.129Z,100653.44
2018-11-26T05:29:43.765Z,100647.98
2018-11-26T05:32:11.386Z,100655.77
2018-11-26T05:34:39.017Z,100655.36
2018-11-26T05:37:06.778Z,100651.18
2018-11-26T05:39:34.430Z,100655.52
2018-11-26T05:42:02.086Z,100657.63
2018-11-26T05:44:29.719Z,100665.88
2018-11-26T05:46:57.438Z,100658.65
2018-11-26T05:49:25.056Z,100669.14
2018-11-26T05:51:52.710Z,100667.06
2018-11-26T05:54:20.441Z,100666.38
2018-11-26T05:56:48.090Z,100681.23
2018-11-26T05:59:16.327Z,100680.31
2018-11-26T06:01:44.005Z,100672.52
2018-11-26T06:04:11.622Z,100669.30
2018-11-26T06:06:39.212Z,100666.76
2018-11-26T06:09:09.448Z,100677.23
2018-11-26T06:11:38.986Z,100670.67
2018-11-26T06:14:06.861Z,100672.84
2018-11-26T06:16:35.658Z,100674.55
2018-11-26T06:19:03.366Z,100674.27
2018-11-26T06:21:31.015Z,100678.22
2018-11-26T06:23:59.664Z,100683.81
2018-11-26T06:26:27.369Z,100676.52
2018-11-26T06:28:54.989Z,100680.89
2018-11-26T06:31:22.692Z,100688.64
2018-11-26T06:33:50.385Z,100695.44
2018-11-26T06:36:18.088Z,100694.14
2018-11-26T06:38:45.792Z,100699.73
2018-11-26T06:41:14.279Z,100694.59
2018-11-26T06:43:41.913Z,100702.30
2018-11-26T06:46:09.641Z,100710.06
2018-11-26T06:48:37.388Z,100707.02
2018-11-26T06:51:05.722Z,100710.84
2018-11-26T06:53:33.369Z,100720.30
2018-11-26T06:56:01.105Z,100724.91
2018-11-26T06:58:28.743Z,100731.83
2018-11-26T07:00:56.426Z,100728.38
2018-11-26T07:03:24.090Z,100729.20
2018-11-26T07:05:51.729Z,100730.95
2018-11-26T07:08:19.354Z,100729.20
2018-11-26T07:10:47.012Z,100737.36
2018-11-26T07:13:14.658Z,100736.76
2018-11-26T07:15:42.290Z,100739.61
2018-11-26T07:18:10.017Z,100745.09
2018-11-26T07:20:37.677Z,100743.69
2018-11-26T07:23:05.415Z,100756.97
2018-11-26T07:25:33.066Z,100756.96
2018-11-26T07:28:00.836Z,100755.21
2018-11-26T07:30:29.628Z,100751.75
2018-11-26T07:32:57.396Z,100757.78
2018-11-26T07:35:25.059Z,100758.20
2018-11-26T07:37:52.732Z,100757.37
2018-11-26T07:40:22.171Z,100757.72
2018-11-26T07:43:07.268Z,100764.86
2018-11-26T07:45:35.055Z,100772.46
2018-11-26T07:48:02.739Z,100771.06
2018-11-26T07:50:30.381Z,100776.16
2018-11-26T07:52:58.019Z,100773.42
2018-11-26T07:55:25.647Z,100779.82
2018-11-26T07:57:53.343Z,100783.64
2018-11-26T08:00:21.729Z,100778.37
2018-11-26T08:02:49.748Z,100780.00
2018-11-26T08:05:18.580Z,100777.85
2018-11-26T08:07:46.430Z,100784.88
2018-11-26T08:10:15.261Z,100791.95
2018-11-26T08:12:43.300Z,100791.45
2018-11-26T08:15:14.961Z,100784.64
2018-11-26T08:17:42.761Z,100786.23
2018-11-26T08:20:10.776Z,100783.54
2018-11-26T08:22:38.390Z,100790.00
2018-11-26T08:25:08.237Z,100793.09
2018-11-26T08:27:36.020Z,100797.44
2018-11-26T08:30:04.561Z,100793.25
2018-11-26T08:32:34.126Z,100787.32
2018-11-26T08:34:59.869Z,100799.45
2018-11-26T08:37:33.902Z,100803.99
2018-11-26T08:40:07.389Z,100812.38
2018-11-26T08:42:45.397Z,100801.59
2018-11-26T08:45:18.606Z,100806.06
2018-11-26T08:47:51.693Z,100808.28
2018-11-26T08:50:19.381Z,100802.81
2018-11-26T08:52:47.048Z,100807.24
2018-11-26T08:55:14.692Z,100808.71
2018-11-26T08:57:42.330Z,100811.05
2018-11-26T09:00:11.050Z,100806.44
2018-11-26T09:02:44.914Z,100807.89
2018-11-26T09:06:16.785Z,100804.62
2018-11-26T09:08:44.449Z,100805.38
2018-11-26T09:11:12.091Z,100809.81
2018-11-26T09:13:39.774Z,100805.58
2018-11-26T09:16:07.490Z,100807.39
2018-11-26T09:18:35.158Z,100820.37
2018-11-26T09:21:02.831Z,100820.88
2018-11-26T09:23:30.481Z,100825.25
2018-11-26T09:25:58.126Z,100830.46
2018-11-26T09:28:25.787Z,100829.62
2018-11-26T09:30:53.432Z,100829.23
2018-11-26T09:33:21.142Z,100820.61
2018-11-26T09:35:48.833Z,100834.92
2018-11-26T09:38:16.645Z,100819.38
2018-11-26T09:40:44.358Z,100827.20
2018-11-26T09:43:12.002Z,100828.09
2018-11-26T09:45:40.437Z,100828.52
2018-11-26T09:48:07.422Z,100826.80
2018-11-26T09:50:35.105Z,100791.66
2018-11-26T09:53:02.741Z,100831.14
2018-11-26T09:55:30.401Z,100828.55
2018-11-26T09:57:58.050Z,100830.21
2018-11-26T10:00:25.709Z,100837.05
2018-11-26T10:02:53.366Z,100842.15
2018-11-26T10:05:24.133Z,100844.26
2018-11-26T10:07:52.040Z,100841.16
2018-11-26T10:10:19.771Z,100845.84
2018-11-26T10:12:47.468Z,100851.03
2018-11-26T10:15:20.951Z,100847.89
2018-11-26T10:17:48.648Z,100837.46
2018-11-26T10:20:16.395Z,100840.02
2018-11-26T10:22:44.582Z,100848.23
2018-11-26T10:25:16.316Z,100846.45
2018-11-26T10:27:43.976Z,100855.48
2018-11-26T10:30:13.420Z,100853.38
2018-11-26T10:32:41.315Z,100853.77
2018-11-26T10:35:11.261Z,100860.66
2018-11-26T10:37:38.931Z,100863.78
2018-11-26T10:40:19.534Z,100863.74
2018-11-26T10:42:47.209Z,100864.93
2018-11-26T10:45:15.861Z,100859.64
2018-11-26T10:47:43.508Z,100856.14
2018-11-26T10:50:16.253Z,100853.52
2018-11-26T10:52:47.139Z,100863.41
2018-11-26T10:55:17.645Z,100861.28
2018-11-26T10:57:45.323Z,100862.50
2018-11-26T11:00:19.596Z,100865.55
2018-11-26T11:02:47.316Z,100865.43
2018-11-26T11:05:15.013Z,100858.88
2018-11-26T11:07:42.700Z,100861.85
2018-11-26T11:10:14.628Z,100863.97
2018-11-26T11:12:42.968Z,100874.74
2018-11-26T11:15:11.597Z,100867.36
2018-11-26T11:17:39.385Z,100870.33
2018-11-26T11:20:09.959Z,100875.41
2018-11-26T11:22:37.608Z,100873.25
2018-11-26T11:25:06.197Z,100880.17
2018-11-26T11:27:33.987Z,100881.42
2018-11-26T11:30:01.683Z,100887.93
2018-11-26T11:32:29.367Z,100892.73
2018-11-26T11:34:57.023Z,100897.06
2018-11-26T11:37:24.739Z,100908.29
2018-11-26T11:39:52.461Z,100897.02
2018-11-26T11:42:20.108Z,100903.81
2018-11-26T11:44:48.499Z,100904.28
2018-11-26T11:47:16.182Z,100913.47
2018-11-26T11:49:43.889Z,100905.62
2018-11-26T11:52:11.574Z,100918.00
2018-11-26T11:54:39.224Z,100912.75
2018-11-26T11:57:06.936Z,100911.83
2018-11-26T11:59:34.592Z,100918.20
2018-11-26T12:02:02.267Z,100919.02
2018-11-26T12:04:29.976Z,100922.03
2018-11-26T12:06:57.647Z,100925.02
2018-11-26T12:09:25.303Z,100926.23
2018-11-26T12:11:52.962Z,100934.81
2018-11-26T12:14:20.663Z,100928.39
2018-11-26T12:16:48.323Z,100929.22
2018-11-26T12:19:16.000Z,100929.13
2018-11-26T12:21:45.088Z,100929.97
2018-11-26T12:24:13.420Z,100930.36
2018-11-26T12:26:41.116Z,100928.16
2018-11-26T12:29:08.756Z,100941.05
2018-11-26T12:31:36.429Z,100942.15
2018-11-26T12:34:04.386Z,100944.08
2018-11-26T12:36:32.079Z,100948.67
2018-11-26T12:38:59.750Z,100953.64
2018-11-26T12:41:27.382Z,100950.53
2018-11-26T12:43:55.355Z,100954.78
2018-11-26T12:46:23.016Z,100957.30
2018-11-26T12:48:50.681Z,100959.25
2018-11-26T12:51:18.502Z,100957.37
2018-11-26T12:53:46.158Z,100966.42
2018-11-26T12:56:13.787Z,100966.86
2018-11-26T12:58:41.433Z,100971.45
2018-11-26T13:01:09.080Z,100966.98
2018-11-26T13:03:36.734Z,100972.45
2018-11-26T13:06:05.086Z,100969.30
2018-11-26T13:08:32.723Z,100975.63
2018-11-26T13:11:00.367Z,100980.19
2018-11-26T13:13:28.517Z,100984.40
2018-11-26T13:15:56.297Z,100988.97
2018-11-26T13:18:23.951Z,100990.52
2018-11-26T13:20:51.615Z,100989.92
2018-11-26T13:23:19.255Z,100991.04
2018-11-26T13:25:46.912Z,100994.41
2018-11-26T13:28:14.572Z,100995.03
2018-11-26T13:30:45.812Z,101000.05
2018-11-26T13:33:15.740Z,100998.22
2018-11-26T13:35:44.159Z,101000.67
2018-11-26T13:38:11.991Z,101001.34
2018-11-26T13:40:39.691Z,101004.24
2018-11-26T13:43:08.659Z,101014.06
2018-11-26T13:45:38.063Z,101009.73
2018-11-26T13:48:07.907Z,101011.36
2018-11-26T13:50:37.181Z,101018.20
2018-11-26T13:53:05.264Z,101013.81
2018-11-26T13:55:32.881Z,101027.22
2018-11-26T13:58:00.556Z,101036.67
2018-11-26T14:00:28.203Z,101036.13
2018-11-26T14:02:55.886Z,101033.81
2018-11-26T14:05:23.647Z,101042.81
2018-11-26T14:07:51.311Z,101041.98
2018-11-26T14:10:20.886Z,101044.04
2018-11-26T14:12:53.008Z,101039.66
2018-11-26T14:15:20.672Z,101038.27
2018-11-26T14:17:48.350Z,101039.47
2018-11-26T14:20:16.571Z,101035.61
2018-11-26T14:22:44.290Z,101040.76
2018-11-26T14:25:14.762Z,101035.52
2018-11-26T14:27:43.004Z,101043.25
2018-11-26T14:30:23.747Z,101041.89
2018-11-26T14:32:51.543Z,101040.59
2018-11-26T14:35:19.224Z,101054.44
2018-11-26T14:37:52.555Z,101054.91
2018-11-26T14:40:28.683Z,101055.20
2018-11-26T14:42:56.357Z,101059.88
2018-11-26T14:45:24.024Z,101064.58
2018-11-26T14:47:51.670Z,101067.15
2018-11-26T14:50:19.368Z,101065.47
2018-11-26T14:52:48.104Z,101072.98
2018-11-26T14:55:17.391Z,101067.17
2018-11-26T14:57:45.079Z,101069.05
2018-11-26T15:00:15.928Z,101070.86
2018-11-26T15:02:43.832Z,101076.98
2018-11-26T15:05:11.573Z,101078.52
2018-11-26T15:07:39.393Z,101083.48
2018-11-26T15:10:10.599Z,101094.57
2018-11-26T15:12:38.372Z,101094.05
2018-11-26T15:15:09.783Z,101099.98
2018-11-26T15:17:38.769Z,101100.30
2018-11-26T15:20:08.976Z,101104.03
2018-11-26T15:22:36.904Z,101106.80
2018-11-26T15:25:05.059Z,101105.31
2018-11-26T15:27:32.828Z,101115.45
2018-11-26T15:30:00.537Z,101114.42
2018-11-26T15:32:28.213Z,101118.20
2018-11-26T15:34:55.893Z,101117.70
2018-11-26T15:37:23.707Z,101127.53
2018-11-26T15:39:51.328Z,101118.94
2018-11-26T15:42:19.014Z,101121.98
2018-11-26T15:44:46.640Z,101129.23
2018-11-26T15:47:14.290Z,101131.78
2018-11-26T15:49:42.335Z,101128.56
2018-11-26T15:52:09.652Z,101130.58
2018-11-26T15:54:37.313Z,101127.33
2018-11-26T15:57:04.972Z,101138.76
2018-11-26T15:59:32.638Z,101137.70
2018-11-26T16:02:00.356Z,101140.09
2018-11-26T16:04:28.046Z,101140.74
2018-11-26T16:06:56.495Z,101146.23
2018-11-26T16:09:24.215Z,101147.30
2018-11-26T16:11:51.843Z,101150.19
2018-11-26T16:14:19.479Z,101152.26
2018-11-26T16:16:47.118Z,101151.25
2018-11-26T16:19:14.805Z,101152.03
2018-11-26T16:21:42.549Z,101153.13
2018-11-26T16:24:10.233Z,101152.52
2018-11-26T16:26:37.914Z,101153.95
2018-11-26T16:29:06.224Z,101157.58
2018-11-26T16:31:33.396Z,101159.07
2018-11-26T16:34:01.162Z,101156.33
2018-11-26T16:36:28.805Z,101153.18
2018-11-26T16:38:56.473Z,101159.00
2018-11-26T16:41:24.315Z,101164.08
2018-11-26T16:43:52.486Z,101171.27
2018-11-26T16:46:20.142Z,101176.37
2018-11-26T16:48:47.779Z,101176.02
2018-11-26T16:51:15.439Z,101177.70
2018-11-26T16:53:43.079Z,101178.95
2018-11-26T16:56:10.791Z,101189.48
2018-11-26T16:58:38.471Z,101184.34
2018-11-26T17:01:06.180Z,101179.16
2018-11-26T17:03:33.811Z,101180.75
2018-11-26T17:06:01.836Z,101184.39
2018-11-26T17:08:29.547Z,101183.14
2018-11-26T17:10:57.207Z,101187.78
2018-11-26T17:13:24.882Z,101179.54
2018-11-26T17:15:52.587Z,101179.74
2018-11-26T17:18:20.207Z,101190.84
2018-11-26T17:20:47.868Z,101189.18
2018-11-26T17:23:15.507Z,101186.75
2018-11-26T17:25:43.235Z,101197.67
2018-11-26T17:28:10.896Z,101201.77
2018-11-26T17:30:39.592Z,101200.72
2018-11-26T17:33:09.194Z,101199.13
2018-11-26T17:35:36.899Z,101198.31
2018-11-26T17:38:04.767Z,101195.67
2018-11-26T17:40:32.426Z,101201.59
2018-11-26T17:43:00.068Z,101209.69
2018-11-26T17:45:27.728Z,101204.88
2018-11-26T17:47:57.040Z,101205.19
2018-11-26T17:50:33.316Z,101199.74
2018-11-26T17:53:01.080Z,101205.80
2018-11-26T17:55:28.767Z,101212.53
2018-11-26T17:57:56.387Z,101215.47
2018-11-26T18:00:32.756Z,101219.11
2018-11-26T18:03:00.403Z,101229.59
2018-11-26T18:05:29.462Z,101234.15
2018-11-26T18:08:00.907Z,101242.56
2018-11-26T18:10:28.626Z,101236.98
2018-11-26T18:12:56.291Z,101234.63
2018-11-26T18:15:24.003Z,101237.57
2018-11-26T18:17:51.723Z,101242.94
2018-11-26T18:20:20.357Z,101235.11
2018-11-26T18:22:49.459Z,101243.89
2018-11-26T18:25:17.703Z,101248.37
2018-11-26T18:27:54.754Z,101243.59
2018-11-26T18:30:24.651Z,101250.31
2018-11-26T18:32:52.310Z,101248.73
2018-11-26T18:35:20.006Z,101250.74
2018-11-26T18:37:47.667Z,101249.79
2018-11-26T18:40:16.273Z,101251.36
2018-11-26T18:42:43.902Z,101271.61
2018-11-26T18:45:12.957Z,101266.91
2018-11-26T18:47:40.631Z,101267.13
2018-11-26T18:50:12.635Z,101266.43
2018-11-26T18:52:40.291Z,101269.29
2018-11-26T18:55:08.952Z,101274.79
2018-11-26T18:57:36.626Z,101278.63
2018-11-26T19:00:23.051Z,101276.82
2018-11-26T19:02:51.483Z,101279.27
2018-11-26T19:05:19.578Z,101278.56
2018-11-26T19:07:47.328Z,101286.55
2018-11-26T19:10:17.313Z,101289.77
2018-11-26T19:12:50.459Z,101289.29
2018-11-26T19:15:29.263Z,101294.02
2018-11-26T19:17:59.086Z,101294.83
2018-11-26T19:20:26.786Z,101299.55
2018-11-26T19:22:54.472Z,101304.09
2018-11-26T19:25:22.166Z,101311.35
2018-11-26T19:27:49.832Z,101312.96
2018-11-26T19:30:22.844Z,101314.88
2018-11-26T19:32:45.705Z,101316.45
2018-11-26T19:35:14.393Z,101320.22
2018-11-26T19:37:41.995Z,101318.41
2018-11-26T19:40:13.153Z,101313.69
2018-11-26T19:42:41.573Z,101311.55
2018-11-26T19:45:16.606Z,101315.80
2018-11-26T19:47:44.335Z,101319.66
2018-11-26T19:50:14.534Z,101322.22
2018-11-26T19:52:47.201Z,101324.23
2018-11-26T19:55:22.707Z,101323.91
2018-11-26T19:57:50.898Z,101319.58
2018-11-26T20:00:20.872Z,101327.31
2018-11-26T20:02:51.499Z,101330.76
2018-11-26T20:05:24.295Z,101330.02
2018-11-26T20:07:52.097Z,101335.05
2018-11-26T20:10:19.763Z,101335.64
2018-11-26T20:12:47.457Z,101339.03
2018-11-26T20:15:16.489Z,101350.46
2018-11-26T20:17:44.230Z,101346.48
2018-11-26T20:20:11.932Z,101345.83
2018-11-26T20:22:39.729Z,101352.08
2018-11-26T20:25:10.540Z,101359.50
2018-11-26T20:27:38.254Z,101360.27
2018-11-26T20:30:08.814Z,101358.91
2018-11-26T20:32:36.502Z,101369.67
2018-11-26T20:35:04.593Z,101364.05
2018-11-26T20:37:32.235Z,101363.43
2018-11-26T20:39:59.966Z,101358.91
2018-11-26T20:42:27.952Z,101363.36
2018-11-26T20:44:55.619Z,101361.27
2018-11-26T20:47:23.274Z,101364.42
2018-11-26T20:49:50.963Z,101369.00
2018-11-26T20:52:18.658Z,101369.63
2018-11-26T20:54:46.319Z,101365.02
2018-11-26T20:57:14.001Z,101367.36
2018-11-26T20:59:41.685Z,101366.36
2018-11-26T21:02:09.342Z,101367.94
2018-11-26T21:04:37.025Z,101369.14
2018-11-26T21:07:04.975Z,101355.78
2018-11-26T21:09:32.985Z,101359.99
2018-11-26T21:12:00.856Z,101363.77
2018-11-26T21:14:28.503Z,101364.66
2018-11-26T21:16:56.635Z,101375.81
2018-11-26T21:19:24.491Z,101373.08
2018-11-26T21:21:52.271Z,101374.84
2018-11-26T21:24:19.938Z,101377.58
2018-11-26T21:26:47.634Z,101376.91
2018-11-26T21:29:15.298Z,101375.86
2018-11-26T21:31:43.077Z,101375.66
2018-11-26T21:34:10.740Z,101384.54
2018-11-26T21:36:38.387Z,101386.11
2018-11-26T21:39:08.632Z,101386.86
2018-11-26T21:41:36.281Z,101387.50
2018-11-26T21:44:03.970Z,101390.36
2018-11-26T21:46:31.618Z,101390.63
2018-11-26T21:48:59.279Z,101384.50
2018-11-26T21:51:26.930Z,101398.11
2018-11-26T21:53:54.614Z,101397.10
2018-11-26T21:56:22.275Z,101394.00
2018-11-26T21:58:49.919Z,101403.35
2018-11-26T22:01:17.563Z,101399.02
2018-11-26T22:03:45.224Z,101394.93
2018-11-26T22:06:12.839Z,101391.08
2018-11-26T22:08:40.469Z,101398.70
2018-11-26T22:11:08.119Z,101402.80
2018-11-26T22:13:35.775Z,101408.59
2018-11-26T22:16:03.479Z,101404.17
2018-11-26T22:18:31.132Z,101401.31
2018-11-26T22:20:58.805Z,101396.13
2018-11-26T22:23:26.456Z,101405.00
2018-11-26T22:25:54.181Z,101401.80
2018-11-26T22:28:21.807Z,101407.94
2018-11-26T22:30:49.462Z,101399.94
2018-11-26T22:33:17.303Z,101396.13
2018-11-26T22:35:44.788Z,101399.58
2018-11-26T22:38:12.479Z,101400.82
2018-11-26T22:40:40.128Z,101410.91
2018-11-26T22:43:07.794Z,101403.77
2018-11-26T22:45:35.502Z,101404.24
2018-11-26T22:48:08.767Z,101409.38
2018-11-26T22:50:37.678Z,101414.16
2018-11-26T22:53:06.613Z,101416.45
2018-11-26T22:55:34.307Z,101412.87
2018-11-26T22:58:01.992Z,101409.78
2018-11-26T23:00:38.976Z,101414.40
2018-11-26T23:03:06.722Z,101420.94
2018-11-26T23:05:34.430Z,101428.77
2018-11-26T23:08:02.128Z,101430.18
2018-11-26T23:10:29.788Z,101432.95
2018-11-26T23:12:57.456Z,101425.36
2018-11-26T23:15:25.117Z,101426.64
2018-11-26T23:17:52.770Z,101421.78
2018-11-26T23:20:20.576Z,101430.37
2018-11-26T23:22:48.269Z,101432.42
2018-11-26T23:25:17.206Z,101434.63
2018-11-26T23:27:44.951Z,101436.56
2018-11-26T23:30:28.244Z,101435.03
2018-11-26T23:32:58.886Z,101429.58
2018-11-26T23:35:26.609Z,101428.94
2018-11-26T23:37:54.324Z,101430.98
2018-11-26T23:40:22.017Z,101429.41
2018-11-26T23:42:49.673Z,101434.84
2018-11-26T23:45:18.471Z,101441.66
2018-11-26T23:47:46.104Z,101439.09
2018-11-26T23:50:15.601Z,101437.04
2018-11-26T23:52:43.637Z,101443.47
2018-11-26T23:55:12.500Z,101443.27
2018-11-26T23:57:40.179Z,101444.16
